createdAt,value
2023-04-18T00:01:14.305Z,8.15
2023-04-18T00:03:42.224Z,8.14
2023-04-18T00:06:10.211Z,8.16
2023-04-18T00:08:48.981Z,8.20
2023-04-18T00:11:16.820Z,8.25
2023-04-18T00:13:47.094Z,8.27
2023-04-18T00:16:15.029Z,8.28
2023-04-18T00:18:42.753Z,8.27
2023-04-18T00:21:10.648Z,8.26
2023-04-18T00:23:40.021Z,8.26
2023-04-18T00:26:07.799Z,8.27
2023-04-18T00:28:35.399Z,8.30
2023-04-18T00:31:04.037Z,8.34
2023-04-18T00:33:33.719Z,8.36
2023-04-18T00:36:01.466Z,8.38
2023-04-18T00:38:29.316Z,8.39
2023-04-18T00:40:57.078Z,8.39
2023-04-18T00:43:25.049Z,8.42
2023-04-18T00:45:52.856Z,8.44
2023-04-18T00:48:20.856Z,8.45
2023-04-18T00:50:48.889Z,8.50
2023-04-18T00:53:16.853Z,8.52
2023-04-18T00:55:44.726Z,8.54
2023-04-18T00:58:12.574Z,8.58
2023-04-18T01:00:42.113Z,8.62
2023-04-18T01:03:13.692Z,8.64
2023-04-18T01:08:11.153Z,8.69
2023-04-18T01:10:38.930Z,8.70
2023-04-18T01:13:18.879Z,8.68
2023-04-18T01:15:49.821Z,8.67
2023-04-18T01:18:17.985Z,8.65
2023-04-18T01:20:51.261Z,8.64
2023-04-18T01:23:21.006Z,8.60
2023-04-18T01:25:49.004Z,8.58
2023-04-18T01:28:24.068Z,8.56
2023-04-18T01:30:51.941Z,8.55
2023-04-18T01:33:19.811Z,8.53
2023-04-18T01:35:49.271Z,8.52
2023-04-18T01:38:16.899Z,8.51
2023-04-18T01:40:44.754Z,8.47
2023-04-18T01:43:12.391Z,8.45
2023-04-18T01:45:40.384Z,8.42
2023-04-18T01:48:09.758Z,8.40
2023-04-18T01:50:37.675Z,8.40
2023-04-18T01:53:05.664Z,8.40
2023-04-18T01:55:33.459Z,8.39
2023-04-18T01:58:01.159Z,8.36
2023-04-18T02:00:29.012Z,8.33
2023-04-18T02:02:59.377Z,8.31
2023-04-18T02:05:27.273Z,8.30
2023-04-18T02:07:54.779Z,8.29
2023-04-18T02:10:23.144Z,8.26
2023-04-18T02:12:50.895Z,8.24
2023-04-18T02:15:19.222Z,8.20
2023-04-18T02:17:48.572Z,8.12
2023-04-18T02:20:16.438Z,7.98
2023-04-18T02:22:44.378Z,7.86
2023-04-18T02:25:12.049Z,7.79
2023-04-18T02:27:40.454Z,7.74
2023-04-18T02:30:09.325Z,7.70
2023-04-18T02:32:37.165Z,7.67
2023-04-18T02:35:05.669Z,7.62
2023-04-18T02:37:33.317Z,7.59
2023-04-18T02:40:04.529Z,7.55
2023-04-18T02:42:34.647Z,7.50
2023-04-18T02:45:04.342Z,7.47
2023-04-18T02:47:40.514Z,7.44
2023-04-18T02:50:03.217Z,7.38
2023-04-18T02:52:31.463Z,7.31
2023-04-18T02:55:00.876Z,7.25
2023-04-18T02:57:30.415Z,7.20
2023-04-18T03:00:18.367Z,7.13
2023-04-18T03:03:05.091Z,7.07
2023-04-18T03:05:40.371Z,7.02
2023-04-18T03:08:11.543Z,6.94
2023-04-18T03:10:40.204Z,6.85
2023-04-18T03:13:11.051Z,6.80
2023-04-18T03:15:39.479Z,6.74
2023-04-18T03:18:12.130Z,6.67
2023-04-18T03:20:40.602Z,6.62
2023-04-18T03:23:11.849Z,6.57
2023-04-18T03:25:39.649Z,6.54
2023-04-18T03:28:07.194Z,6.54
2023-04-18T03:30:36.583Z,6.55
2023-04-18T03:33:04.833Z,6.53
2023-04-18T03:35:33.185Z,6.51
2023-04-18T03:38:02.722Z,6.51
2023-04-18T03:40:34.156Z,6.52
2023-04-18T03:43:03.752Z,6.51
2023-04-18T03:45:31.949Z,6.50
2023-04-18T03:48:03.028Z,6.50
2023-04-18T03:50:32.008Z,6.48
2023-04-18T03:53:00.797Z,6.42
2023-04-18T03:55:31.946Z,6.41
2023-04-18T03:57:59.572Z,6.41
2023-04-18T04:00:29.122Z,6.41
2023-04-18T04:03:03.375Z,6.42
2023-04-18T04:05:31.350Z,6.44
2023-04-18T04:07:59.766Z,6.48
2023-04-18T04:10:33.701Z,6.48
2023-04-18T04:13:01.627Z,6.44
2023-04-18T04:15:29.726Z,6.47
2023-04-18T04:17:59.348Z,6.49
2023-04-18T04:20:27.299Z,6.49
2023-04-18T04:22:58.484Z,6.52
2023-04-18T04:25:29.557Z,6.56
2023-04-18T04:28:00.377Z,6.66
2023-04-18T04:31:01.741Z,6.90
2023-04-18T04:33:31.501Z,7.09
2023-04-18T04:36:02.584Z,7.23
2023-04-18T04:38:31.426Z,7.32
2023-04-18T04:41:23.707Z,7.42
2023-04-18T04:43:53.371Z,7.51
2023-04-18T04:46:29.065Z,7.56
2023-04-18T04:48:57.315Z,7.56
2023-04-18T04:51:27.527Z,7.62
2023-04-18T04:53:55.928Z,7.70
2023-04-18T04:56:24.021Z,7.78
2023-04-18T04:58:53.617Z,7.88
2023-04-18T05:01:26.205Z,8.02
2023-04-18T05:03:54.443Z,8.16
2023-04-18T05:06:22.791Z,8.33
2023-04-18T05:08:50.972Z,8.51
2023-04-18T05:11:19.026Z,8.69
2023-04-18T05:13:46.682Z,8.88
2023-04-18T05:16:14.502Z,9.07
2023-04-18T05:18:42.338Z,9.23
2023-04-18T05:21:10.599Z,9.36
2023-04-18T05:23:38.216Z,9.50
2023-04-18T05:26:06.299Z,9.61
2023-04-18T05:28:34.045Z,9.74
2023-04-18T05:31:02.050Z,9.82
2023-04-18T05:33:31.261Z,9.83
2023-04-18T05:35:59.608Z,9.89
2023-04-18T05:38:27.586Z,9.96
2023-04-18T05:40:56.598Z,10.05
2023-04-18T05:43:24.549Z,10.19
2023-04-18T05:45:53.714Z,10.34
2023-04-18T05:48:24.723Z,10.51
2023-04-18T05:50:52.535Z,10.63
2023-04-18T05:53:20.461Z,10.68
2023-04-18T05:55:48.460Z,10.76
2023-04-18T05:58:16.284Z,10.82
2023-04-18T06:00:47.847Z,10.98
2023-04-18T06:03:15.893Z,11.22
2023-04-18T06:05:43.899Z,11.54
2023-04-18T06:08:13.253Z,11.81
2023-04-18T06:10:41.190Z,12.06
2023-04-18T06:13:10.810Z,12.35
2023-04-18T06:15:38.900Z,12.79
2023-04-18T06:18:07.137Z,13.24
2023-04-18T06:20:35.253Z,13.67
2023-04-18T06:23:03.157Z,13.88
2023-04-18T06:25:31.139Z,14.03
2023-04-18T06:28:01.087Z,14.26
2023-04-18T06:30:29.029Z,14.47
2023-04-18T06:32:57.270Z,14.85
2023-04-18T06:35:26.631Z,15.30
2023-04-18T06:37:54.639Z,15.76
2023-04-18T06:40:22.631Z,16.20
2023-04-18T06:42:51.852Z,16.59
2023-04-18T06:45:23.538Z,17.08
2023-04-18T06:47:52.493Z,17.39
2023-04-18T06:50:20.302Z,17.64
2023-04-18T06:52:48.114Z,17.92
2023-04-18T06:55:15.701Z,18.21
2023-04-18T06:57:43.851Z,18.35
2023-04-18T07:00:14.714Z,18.49
2023-04-18T07:02:42.967Z,18.52
2023-04-18T07:05:10.719Z,18.43
2023-04-18T07:07:40.468Z,18.32
2023-04-18T07:10:12.876Z,17.97
2023-04-18T07:13:01.206Z,17.93
2023-04-18T07:15:35.789Z,17.52
2023-04-18T07:18:03.939Z,17.51
2023-04-18T07:20:33.856Z,17.59
2023-04-18T07:23:04.305Z,17.63
2023-04-18T07:25:33.919Z,17.77
2023-04-18T07:28:02.234Z,17.94
2023-04-18T07:30:49.861Z,18.17
2023-04-18T07:33:17.990Z,18.59
2023-04-18T07:35:51.100Z,18.81
2023-04-18T07:38:18.878Z,18.81
2023-04-18T07:40:46.851Z,18.52
2023-04-18T07:43:15.452Z,18.23
2023-04-18T07:45:44.041Z,18.12
2023-04-18T07:48:12.760Z,18.05
2023-04-18T07:50:40.650Z,18.07
2023-04-18T07:53:09.866Z,18.16
2023-04-18T07:55:37.797Z,18.26
2023-04-18T07:58:06.199Z,18.33
2023-04-18T08:00:39.504Z,18.48
2023-04-18T08:03:10.010Z,18.62
2023-04-18T08:05:43.197Z,18.62
2023-04-18T08:08:13.994Z,18.79
2023-04-18T08:10:45.243Z,18.90
2023-04-18T08:13:19.961Z,18.95
2023-04-18T08:15:48.282Z,19.01
2023-04-18T08:18:19.784Z,18.93
2023-04-18T08:20:47.812Z,19.08
2023-04-18T08:23:15.577Z,19.18
2023-04-18T08:25:43.393Z,19.00
2023-04-18T08:28:13.240Z,18.94
2023-04-18T08:30:42.119Z,19.02
2023-04-18T08:33:10.203Z,19.00
2023-04-18T08:35:39.097Z,18.92
2023-04-18T08:38:11.919Z,18.89
2023-04-18T08:40:39.821Z,18.92
2023-04-18T08:43:09.214Z,18.80
2023-04-18T08:45:38.101Z,18.84
2023-04-18T08:48:07.221Z,18.82
2023-04-18T08:50:35.586Z,18.83
2023-04-18T08:53:03.072Z,18.80
2023-04-18T08:55:35.001Z,18.71
2023-04-18T08:58:06.136Z,18.65
2023-04-18T09:00:38.755Z,18.51
2023-04-18T09:03:07.012Z,18.45
2023-04-18T09:05:35.630Z,18.36
2023-04-18T09:08:21.088Z,18.48
2023-04-18T09:10:53.099Z,18.45
2023-04-18T09:13:43.655Z,18.56
2023-04-18T09:16:12.796Z,18.77
2023-04-18T09:18:42.273Z,18.59
2023-04-18T09:21:20.164Z,18.69
2023-04-18T09:23:49.872Z,18.86
2023-04-18T09:26:36.263Z,19.06
2023-04-18T09:29:46.153Z,19.18
2023-04-18T09:32:30.195Z,19.17
2023-04-18T09:35:13.710Z,19.14
2023-04-18T09:37:49.808Z,19.01
2023-04-18T09:40:20.172Z,18.90
2023-04-18T09:42:48.245Z,18.83
2023-04-18T09:45:16.404Z,18.64
2023-04-18T09:47:44.540Z,18.34
2023-04-18T09:53:52.145Z,17.79
2023-04-18T09:56:39.134Z,17.63
2023-04-18T09:59:27.045Z,17.53
2023-04-18T10:02:24.950Z,17.34
2023-04-18T10:05:20.966Z,17.07
2023-04-18T10:07:55.387Z,16.73
2023-04-18T10:10:28.340Z,16.66
2023-04-18T10:12:59.465Z,16.61
2023-04-18T10:15:29.693Z,16.61
2023-04-18T10:18:06.411Z,16.67
2023-04-18T10:20:54.286Z,16.76
2023-04-18T10:23:40.716Z,16.85
2023-04-18T10:26:11.139Z,16.91
2023-04-18T10:28:59.322Z,17.02
2023-04-18T10:31:47.013Z,17.01
2023-04-18T10:34:23.325Z,17.01
2023-04-18T10:37:06.700Z,16.97
2023-04-18T10:39:58.378Z,17.00
2023-04-18T10:42:54.367Z,16.97
2023-04-18T10:45:30.825Z,16.86
2023-04-18T10:48:25.429Z,16.77
2023-04-18T10:51:17.268Z,16.83
2023-04-18T10:53:57.733Z,16.95
2023-04-18T10:56:27.454Z,17.10
2023-04-18T10:58:58.118Z,17.15
2023-04-18T11:01:32.435Z,17.32
2023-04-18T11:04:00.658Z,17.54
2023-04-18T11:06:30.773Z,17.67
2023-04-18T11:09:13.212Z,17.69
2023-04-18T11:11:42.100Z,17.67
2023-04-18T11:14:10.752Z,17.75
2023-04-18T11:16:40.636Z,17.78
2023-04-18T11:19:21.307Z,17.75
2023-04-18T11:21:49.556Z,17.73
2023-04-18T11:24:24.357Z,17.82
2023-04-18T11:26:55.210Z,17.86
2023-04-18T11:29:23.150Z,17.77
2023-04-18T11:31:58.321Z,17.86
2023-04-18T11:34:31.161Z,17.91
2023-04-18T11:36:59.868Z,17.96
2023-04-18T11:39:28.136Z,18.01
2023-04-18T11:41:57.658Z,18.06
2023-04-18T11:44:26.619Z,18.06
2023-04-18T11:46:54.912Z,18.07
2023-04-18T11:49:32.969Z,18.06
2023-04-18T11:52:03.643Z,18.06
2023-04-18T11:54:43.760Z,18.03
2023-04-18T11:57:28.527Z,18.00
2023-04-18T12:00:00.651Z,17.93
2023-04-18T12:02:45.730Z,17.87
2023-04-18T12:05:27.346Z,17.68
2023-04-18T12:07:56.203Z,17.45
2023-04-18T12:10:28.025Z,17.29
2023-04-18T12:13:00.057Z,17.29
2023-04-18T12:15:29.647Z,17.31
2023-04-18T12:18:04.313Z,17.32
2023-04-18T12:20:51.144Z,17.29
2023-04-18T12:23:40.554Z,17.30
2023-04-18T12:26:17.096Z,17.29
2023-04-18T12:28:47.589Z,17.18
2023-04-18T12:31:15.701Z,17.06
2023-04-18T12:33:43.592Z,16.92
2023-04-18T12:36:11.463Z,16.77
2023-04-18T12:38:39.559Z,16.67
2023-04-18T12:41:07.539Z,16.58
2023-04-18T12:43:35.532Z,16.41
2023-04-18T12:46:03.551Z,16.28
2023-04-18T12:48:31.312Z,16.13
2023-04-18T12:50:59.251Z,16.03
2023-04-18T12:53:27.052Z,15.90
2023-04-18T12:55:54.912Z,15.74
2023-04-18T12:58:22.664Z,15.62
2023-04-18T13:00:54.250Z,15.41
2023-04-18T13:03:29.804Z,15.46
2023-04-18T13:06:06.195Z,15.51
2023-04-18T13:08:50.743Z,15.64
2023-04-18T13:11:28.789Z,15.74
2023-04-18T13:14:00.395Z,15.82
2023-04-18T13:16:31.101Z,15.88
2023-04-18T13:18:58.965Z,15.97
2023-04-18T13:21:27.045Z,16.09
2023-04-18T13:23:55.043Z,16.12
2023-04-18T13:26:22.794Z,16.08
2023-04-18T13:28:51.160Z,16.14
2023-04-18T13:31:19.205Z,16.22
2023-04-18T13:33:47.021Z,16.33
2023-04-18T13:36:15.075Z,16.35
2023-04-18T13:38:44.948Z,16.38
2023-04-18T13:41:17.342Z,16.55
2023-04-18T13:43:49.572Z,16.67
2023-04-18T13:46:28.208Z,16.68
2023-04-18T13:48:56.570Z,16.80
2023-04-18T13:51:25.319Z,16.91
2023-04-18T13:53:56.062Z,17.08
2023-04-18T13:56:24.387Z,17.04
2023-04-18T13:58:52.613Z,17.12
2023-04-18T14:01:25.574Z,17.18
2023-04-18T14:03:54.100Z,17.13
2023-04-18T14:06:22.539Z,17.08
2023-04-18T14:08:50.924Z,17.09
2023-04-18T14:11:23.660Z,17.18
2023-04-18T14:13:51.719Z,17.29
2023-04-18T14:16:19.813Z,17.40
2023-04-18T14:18:47.880Z,17.46
2023-04-18T14:21:15.995Z,17.54
2023-04-18T14:23:47.356Z,17.55
2023-04-18T14:26:16.238Z,17.47
2023-04-18T14:28:48.006Z,17.49
2023-04-18T14:31:16.493Z,17.51
2023-04-18T14:33:44.511Z,17.53
2023-04-18T14:36:14.629Z,17.54
2023-04-18T14:38:42.746Z,17.45
2023-04-18T14:41:10.764Z,17.31
2023-04-18T14:43:38.792Z,17.20
2023-04-18T14:46:16.851Z,17.13
2023-04-18T14:48:46.635Z,17.01
2023-04-18T14:51:17.277Z,16.92
2023-04-18T14:53:45.614Z,16.89
2023-04-18T14:56:14.909Z,16.84
2023-04-18T14:58:43.253Z,16.77
2023-04-18T15:01:12.425Z,16.68
2023-04-18T15:03:42.275Z,16.62
2023-04-18T15:06:27.500Z,16.54
2023-04-18T17:40:11.422Z,11.42
2023-04-18T17:42:39.545Z,11.37
2023-04-18T17:45:09.184Z,11.36
2023-04-18T17:47:37.054Z,11.36
2023-04-18T17:50:06.703Z,11.32
2023-04-18T17:52:34.435Z,11.32
2023-04-18T17:55:09.969Z,11.30
2023-04-18T17:57:40.443Z,11.28
2023-04-18T18:00:11.031Z,11.25
2023-04-18T18:02:44.913Z,11.21
2023-04-18T18:05:16.135Z,11.22
2023-04-18T18:07:46.536Z,11.22
2023-04-18T18:10:21.905Z,11.20
2023-04-18T18:12:50.131Z,11.18
2023-04-18T18:15:18.447Z,11.16
2023-04-18T18:17:49.304Z,11.15
2023-04-18T18:20:18.710Z,11.13
2023-04-18T18:22:46.803Z,11.11
2023-04-18T18:25:15.489Z,11.09
2023-04-18T18:27:43.896Z,11.08
2023-04-18T18:30:11.898Z,11.07
2023-04-18T18:32:40.157Z,11.11
2023-04-18T18:35:09.273Z,11.10
2023-04-18T18:37:40.582Z,11.10
2023-04-18T18:40:10.184Z,11.08
2023-04-18T18:42:38.812Z,11.07
2023-04-18T18:45:09.803Z,11.06
2023-04-18T18:47:39.858Z,11.06
2023-04-18T18:50:10.484Z,11.04
2023-04-18T18:52:40.381Z,11.04
2023-04-18T18:55:12.049Z,11.02
2023-04-18T18:57:40.554Z,11.01
2023-04-18T19:00:11.182Z,11.02
2023-04-18T19:02:39.730Z,11.00
2023-04-18T19:05:12.050Z,11.00
2023-04-18T19:07:43.216Z,11.02
2023-04-18T19:10:11.429Z,11.04
2023-04-18T19:12:39.643Z,11.05
2023-04-18T19:15:08.845Z,11.03
2023-04-18T19:17:37.514Z,11.03
2023-04-18T19:20:08.767Z,10.99
2023-04-18T19:22:37.503Z,11.00
2023-04-18T19:25:06.794Z,10.98
2023-04-18T19:27:35.260Z,10.99
2023-04-18T19:30:03.342Z,11.00
2023-04-18T19:32:34.087Z,11.01
2023-04-18T19:35:03.386Z,11.03
2023-04-18T21:21:03.799Z,10.33
2023-04-18T21:23:31.913Z,10.29
2023-04-18T21:25:59.713Z,10.25
2023-04-18T21:28:27.653Z,10.23
2023-04-18T21:30:55.820Z,10.20
2023-04-18T21:33:24.131Z,10.16
2023-04-18T21:35:52.316Z,10.10
2023-04-18T21:38:22.161Z,10.08
2023-04-18T21:40:50.037Z,10.06
2023-04-18T21:43:18.090Z,10.02
2023-04-18T21:45:46.304Z,9.99
2023-04-18T21:48:14.306Z,9.96
2023-04-18T21:50:42.636Z,9.95
2023-04-18T21:53:10.451Z,9.94
2023-04-18T21:55:38.307Z,9.92
2023-04-18T21:58:06.244Z,9.90
2023-04-18T22:00:34.151Z,9.89
2023-04-18T22:03:02.043Z,9.89
2023-04-18T22:05:30.089Z,9.88
2023-04-18T22:07:58.820Z,9.85
2023-04-18T22:10:26.781Z,9.85
2023-04-18T22:12:55.406Z,9.83
2023-04-18T22:15:26.382Z,9.83
2023-04-18T22:17:54.284Z,9.80
2023-04-18T22:20:27.706Z,9.80
2023-04-18T22:22:55.506Z,9.81
2023-04-18T22:25:23.362Z,9.79
2023-04-18T22:27:51.358Z,9.78
2023-04-18T22:30:19.309Z,9.77
2023-04-18T22:32:47.778Z,9.77
2023-04-18T22:35:16.164Z,9.77
2023-04-18T22:37:44.347Z,9.76
2023-04-18T22:40:13.047Z,9.75
2023-04-18T22:42:40.706Z,9.74
2023-04-18T22:45:09.726Z,9.73
2023-04-18T22:47:37.615Z,9.74
2023-04-18T22:50:06.702Z,9.74
2023-04-18T22:52:34.972Z,9.74
2023-04-18T22:55:03.669Z,9.74
2023-04-18T22:57:31.492Z,9.74
2023-04-18T22:59:59.411Z,9.75
2023-04-18T23:02:27.589Z,9.74
2023-04-18T23:04:58.490Z,9.74
2023-04-18T23:07:26.222Z,9.74
2023-04-18T23:09:54.796Z,9.73
2023-04-18T23:12:22.754Z,9.72
2023-04-18T23:14:52.105Z,9.72
2023-04-18T23:17:20.606Z,9.69
2023-04-18T23:19:48.581Z,9.68
2023-04-18T23:22:16.566Z,9.68
2023-04-18T23:24:44.473Z,9.67
2023-04-18T23:27:12.176Z,9.67
2023-04-18T23:29:40.093Z,9.67
2023-04-18T23:32:08.007Z,9.65
2023-04-18T23:34:38.425Z,9.64
2023-04-18T23:37:06.333Z,9.61
2023-04-18T23:39:34.227Z,9.61
2023-04-18T23:42:02.250Z,9.60
2023-04-18T23:44:31.217Z,9.60
2023-04-18T23:46:59.221Z,9.61
2023-04-18T23:49:27.934Z,9.62
2023-04-18T23:51:56.006Z,9.60
2023-04-18T23:54:24.018Z,9.60
2023-04-18T23:56:52.092Z,9.61
2023-04-18T23:59:19.985Z,9.61
